Terminal Aerodrome Forecast
Issued by NWS

Home | Current Version | Previous Version | Graphics & Text | Print | Product List | Glossary On
Versions: 1 2 3 4 5 6 7 8 9 10 11 12 13 14 15 16 17 18 19 20
889
FTUS43 KABR 232123 AAB
TAFPIR
TAF AMD
KPIR 232123Z 2321/2418 25007KT P6SM BKN200
     FM232200 17015KT P6SM VCTS BKN110CB BKN200
     FM240400 16009KT P6SM BKN200 WS020/21035KT
     FM241100 18008KT P6SM SCT250=

USA.gov is the U.S. government's official web portal to all federal, state and local government web resources and services.